Galien, MI (49113)

10:22 PM EST on February 08, 2016 (GMT -0500)
Galien | | Change Station
CLOSE
Current Station
Personal Weather Station
Location: Galien, MI
Elevation: 726 ft
Nearby Weather Stations
Active Advisory: Special Statement Active Notice: Local Storm Report

Elev 726 ft 41.78 °N, 86.51 °W | Updated 2 minutes ago

Snow
Snow
27.3 °F
Feels Like 27 °F
N
2.0
Wind Variable Wind from West
Gusts 9.0 mph

Today
High -- | Low -- °F
--% Chance of Precip.
Yesterday
High -- | Low -- °F
Precip. -- in
Pressure 29.69 in
Visibility 4.0 miles
Clouds Mostly Cloudy 800 ft
Mostly Cloudy 1300 ft
Overcast 3000 ft
Windchill 27 °F
Dew Point 26 °F
Humidity 96%
Rainfall 0.00 in
Snow Depth Not available.
7:51 AM 6:09 PM
New Moon, 0% visible
SPECI KSBN 090307Z 28010KT 4SM -SN BR BKN008 BKN013 OVC030 M03/M04 A2969 RMK AO2 P0000 T10331044
Pressure 29.69 in
Visibility 4.0 miles
Clouds Mostly Cloudy 800 ft
Mostly Cloudy 1300 ft
Overcast 3000 ft
Windchill 27 °F
Dew Point 26 °F
Humidity 96%
Rainfall 0.00 in
Snow Depth Not available.
7:51 AM 6:09 PM
New Moon, 0% visible
SPECI KSBN 090307Z 28010KT 4SM -SN BR BKN008 BKN013 OVC030 M03/M04 A2969 RMK AO2 P0000 T10331044

10-Day Weather Forecast

Almanac

Astronomy

Feb. 08, 2016 Rise Set
Actual Time
Civil Twilight
Nautical Twilight
Astronomical Twilight
Moon
Length of Visible Light
Length of Day
Tomorrow will be .
, % of the Moon is Illuminated

Today's Extremes

State Highs State Lows

Community

WunderPhotos

Upload Photos

1,891,527 photos uploaded!

WunderBlog® & News

Nearby

Air Quality

  Air Quality AQ Index Pollutant
Not available.

Snow Depth

Station Depth Elevation

Earthquake Activity

City Distance Mag. Time & Date
Minimum magnitude displayed is 2.5.

Coastal Water Temperatures

Place Temperature

Stations

Nearby Weather Stations

Station Location Temp. Windchill Dew Point Humidity Wind Precip. Elev Updated Type
                   

Watches & Warnings

Special Statement
Issued: 6:56 PM CST Feb. 8, 2016 – National Weather Service

... Snow showers tonight with slick roads possible...

Snow showers will continue through the night with the greatest
accumulations of 1 to 3 inches expected for the favored lake
effect areas. However... slick roads are possible across much of
the area due to the combination of the snow showers and falling
temperatures into the mid 20s... resulting in the freezing of
earlier melted snow.



756 PM EST Mon Feb 8 2016 /656 PM CST Mon Feb 8 2016/

... Snow showers tonight with slick roads possible...

Snow showers will continue through the night with the greatest
accumulations of 1 to 3 inches expected for the favored lake
effect areas. However... slick roads are possible across much of
the area due to the combination of the snow showers and falling
temperatures into the mid 20s... resulting in the freezing of
earlier melted snow.